createdAt,value
2023-04-06T00:01:48.236Z,3.92
2023-04-06T00:04:15.999Z,3.67
2023-04-06T00:06:43.524Z,3.60
2023-04-06T00:09:11.112Z,4.10
2023-04-06T00:11:38.626Z,3.53
2023-04-06T00:14:06.211Z,4.00
2023-04-06T00:16:33.753Z,4.28
2023-04-06T00:19:01.427Z,3.72
2023-04-06T00:21:28.966Z,3.30
2023-04-06T00:23:56.473Z,4.60
2023-04-06T00:26:24.037Z,3.78
2023-04-06T00:28:53.548Z,4.43
2023-04-06T00:31:21.616Z,4.13
2023-04-06T00:33:49.853Z,3.95
2023-04-06T00:36:17.406Z,4.10
2023-04-06T00:38:45.101Z,4.47
2023-04-06T00:41:13.075Z,3.90
2023-04-06T00:43:40.856Z,3.92
2023-04-06T00:46:09.479Z,4.25
2023-04-06T00:48:38.563Z,4.30
2023-04-06T00:51:06.260Z,3.60
2023-04-06T00:53:33.740Z,4.28
2023-04-06T00:56:01.266Z,3.65
2023-04-06T00:58:29.068Z,4.50
2023-04-06T01:00:56.754Z,4.35
2023-04-06T01:03:24.402Z,4.38
2023-04-06T01:05:56.952Z,5.00
2023-04-06T01:08:24.620Z,4.63
2023-04-06T01:10:52.121Z,4.00
2023-04-06T01:13:19.769Z,4.40
2023-04-06T01:15:48.427Z,4.50
2023-04-06T01:18:16.857Z,4.47
2023-04-06T01:20:44.398Z,4.72
2023-04-06T01:23:11.930Z,4.53
2023-04-06T01:25:39.396Z,4.85
2023-04-06T01:28:06.999Z,3.80
2023-04-06T01:30:34.603Z,4.13
2023-04-06T01:33:02.393Z,4.63
2023-04-06T01:35:31.454Z,4.53
2023-04-06T01:37:59.014Z,4.45
2023-04-06T01:40:26.626Z,4.75
2023-04-06T01:42:54.176Z,4.65
2023-04-06T01:45:22.273Z,4.80
2023-04-06T01:47:49.910Z,4.82
2023-04-06T01:50:17.466Z,4.90
2023-04-06T01:52:45.011Z,5.00
2023-04-06T01:55:14.981Z,5.00
2023-04-06T01:57:42.629Z,5.18
2023-04-06T02:00:10.900Z,4.43
2023-04-06T02:02:38.697Z,5.53
2023-04-06T02:05:06.723Z,5.25
2023-04-06T02:07:34.330Z,5.00
2023-04-06T02:10:01.965Z,5.20
2023-04-06T02:12:30.385Z,4.75
2023-04-06T02:14:58.017Z,5.63
2023-04-06T02:17:25.594Z,5.18
2023-04-06T02:19:53.178Z,5.78
2023-04-06T02:22:20.778Z,5.68
2023-04-06T02:24:48.305Z,5.05
2023-04-06T02:27:16.659Z,5.25
2023-04-06T02:29:44.340Z,5.05
2023-04-06T02:32:11.918Z,4.90
2023-04-06T02:34:39.447Z,5.47
2023-04-06T02:37:06.972Z,5.15
2023-04-06T02:39:34.536Z,5.30
2023-04-06T02:42:02.190Z,5.07
2023-04-06T02:44:29.710Z,5.47
2023-04-06T02:46:57.228Z,5.10
2023-04-06T02:49:24.896Z,5.25
2023-04-06T02:51:52.449Z,5.15
2023-04-06T02:54:19.955Z,5.00
2023-04-06T02:56:47.423Z,4.68
2023-04-06T02:59:15.081Z,4.40
2023-04-06T03:01:42.833Z,4.80
2023-04-06T03:04:10.348Z,4.43
2023-04-06T03:06:37.802Z,4.57
2023-04-06T03:09:06.010Z,5.10
2023-04-06T03:11:33.664Z,4.70
2023-04-06T03:14:01.273Z,4.57
2023-04-06T03:16:28.869Z,4.50
2023-04-06T03:18:56.554Z,4.47
2023-04-06T03:21:24.089Z,4.90
2023-04-06T03:23:52.319Z,4.40
2023-04-06T03:26:19.986Z,4.47
2023-04-06T03:28:47.525Z,4.50
2023-04-06T03:31:15.036Z,4.68
2023-04-06T03:33:42.606Z,4.35
2023-04-06T03:36:10.223Z,4.25
2023-04-06T03:38:39.075Z,4.43
2023-04-06T03:41:08.286Z,5.10
2023-04-06T03:43:35.819Z,4.80
2023-04-06T03:46:03.420Z,4.38
2023-04-06T03:48:31.095Z,4.45
2023-04-06T03:50:58.680Z,4.22
2023-04-06T03:53:26.277Z,3.97
2023-04-06T03:55:53.798Z,4.47
2023-04-06T03:58:21.425Z,4.13
2023-04-06T04:00:48.937Z,4.22
2023-04-06T04:03:16.685Z,3.88
2023-04-06T04:05:44.639Z,3.70
2023-04-06T04:08:12.153Z,4.07
2023-04-06T04:10:39.651Z,4.22
2023-04-06T04:13:07.736Z,3.80
2023-04-06T04:15:37.523Z,3.50
2023-04-06T04:18:05.342Z,3.80
2023-04-06T04:20:32.905Z,3.78
2023-04-06T04:23:00.394Z,3.83
2023-04-06T04:25:27.886Z,4.13
2023-04-06T04:27:56.105Z,3.80
2023-04-06T04:30:23.594Z,3.80
2023-04-06T04:32:51.222Z,3.90
2023-04-06T04:35:18.894Z,3.85
2023-04-06T04:37:46.568Z,4.25
2023-04-06T04:40:14.168Z,3.78
2023-04-06T04:42:41.730Z,3.42
2023-04-06T04:45:09.575Z,3.80
2023-04-06T04:47:37.389Z,3.53
2023-04-06T04:50:05.352Z,4.13
2023-04-06T04:52:32.829Z,4.07
2023-04-06T04:55:00.329Z,3.92
2023-04-06T04:57:27.819Z,3.97
2023-04-06T04:59:57.296Z,3.20
2023-04-06T05:02:25.679Z,3.72
2023-04-06T05:04:53.320Z,4.43
2023-04-06T05:07:22.034Z,3.80
2023-04-06T05:09:49.649Z,3.75
2023-04-06T05:12:17.152Z,3.88
2023-04-06T05:14:44.894Z,3.95
2023-04-06T05:17:12.422Z,3.70
2023-04-06T05:19:39.967Z,4.00
2023-04-06T05:22:07.604Z,3.45
2023-04-06T05:24:36.354Z,3.30
2023-04-06T05:27:04.227Z,3.90
2023-04-06T05:29:31.874Z,4.07
2023-04-06T05:31:59.408Z,3.53
2023-04-06T05:34:26.901Z,3.78
2023-04-06T05:36:54.572Z,3.42
2023-04-06T05:39:22.055Z,3.85
2023-04-06T05:41:50.897Z,4.10
2023-04-06T05:44:18.371Z,3.85
2023-04-06T05:46:46.239Z,3.47
2023-04-06T05:49:14.308Z,3.58
2023-04-06T05:51:41.806Z,3.72
2023-04-06T05:54:09.370Z,3.72
2023-04-06T05:56:36.837Z,3.65
2023-04-06T05:59:04.487Z,3.95
2023-04-06T06:01:32.123Z,4.15
2023-04-06T06:04:01.374Z,3.55
2023-04-06T06:06:31.375Z,3.90
2023-04-06T06:09:02.434Z,3.42
2023-04-06T06:11:30.057Z,3.47
2023-04-06T06:13:57.752Z,3.95
2023-04-06T06:16:25.354Z,3.80
2023-04-06T06:18:52.840Z,3.65
2023-04-06T06:21:20.552Z,3.92
2023-04-06T06:23:49.748Z,3.80
2023-04-06T06:26:17.640Z,4.20
2023-04-06T06:28:45.271Z,3.63
2023-04-06T06:31:13.068Z,4.28
2023-04-06T06:33:40.621Z,3.72
2023-04-06T06:36:08.350Z,4.75
2023-04-06T06:38:36.032Z,4.07
2023-04-06T06:41:03.579Z,3.90
2023-04-06T06:43:31.136Z,3.97
2023-04-06T06:45:59.968Z,3.85
2023-04-06T06:48:28.062Z,4.22
2023-04-06T06:50:55.824Z,4.20
2023-04-06T06:53:24.190Z,4.43
2023-04-06T06:55:51.811Z,3.90
2023-04-06T06:58:21.436Z,4.00
2023-04-06T07:00:49.024Z,3.75
2023-04-06T07:03:16.613Z,3.85
2023-04-06T07:05:51.372Z,3.88
2023-04-06T07:08:19.052Z,3.53
2023-04-06T07:10:46.747Z,3.80
2023-04-06T07:13:20.298Z,3.88
2023-04-06T07:15:47.797Z,3.80
2023-04-06T07:18:15.714Z,3.70
2023-04-06T07:20:43.263Z,3.53
2023-04-06T07:23:10.957Z,3.60
2023-04-06T07:25:38.778Z,3.15
2023-04-06T07:28:09.045Z,3.45
2023-04-06T07:30:37.946Z,3.58
2023-04-06T07:33:06.772Z,3.40
2023-04-06T07:35:35.287Z,3.38
2023-04-06T07:38:02.904Z,3.53
2023-04-06T07:40:31.078Z,3.25
2023-04-06T07:42:58.691Z,3.60
2023-04-06T07:45:26.244Z,3.15
2023-04-06T07:47:53.933Z,3.75
2023-04-06T07:50:21.753Z,3.42
2023-04-06T07:52:49.262Z,3.30
2023-04-06T07:55:16.944Z,3.25
2023-04-06T07:57:44.550Z,3.17
2023-04-06T08:00:13.008Z,3.20
2023-04-06T08:02:40.793Z,3.60
2023-04-06T08:05:08.697Z,3.83
2023-04-06T08:07:37.093Z,3.25
2023-04-06T08:10:05.280Z,3.45
2023-04-06T08:12:34.308Z,3.60
2023-04-06T08:15:03.682Z,3.22
2023-04-06T08:17:32.694Z,2.92
2023-04-06T08:20:00.201Z,3.20
2023-04-06T08:22:27.812Z,3.25
2023-04-06T08:24:55.366Z,3.10
2023-04-06T08:27:22.903Z,2.90
2023-04-06T08:29:51.055Z,3.15
2023-04-06T08:32:18.761Z,3.33
2023-04-06T08:34:46.559Z,3.08
2023-04-06T08:37:14.137Z,2.50
2023-04-06T08:39:41.644Z,2.92
2023-04-06T08:42:20.679Z,3.10
2023-04-06T08:44:55.065Z,3.10
2023-04-06T08:47:24.712Z,2.65
2023-04-06T08:49:53.950Z,2.70
2023-04-06T08:52:22.034Z,2.97
2023-04-06T08:54:49.744Z,3.00
2023-04-06T08:57:19.121Z,2.88
2023-04-06T08:59:47.001Z,2.67
2023-04-06T09:02:19.166Z,2.75
2023-04-06T09:04:53.589Z,2.88
2023-04-06T09:07:22.668Z,3.10
2023-04-06T09:09:50.211Z,2.60
2023-04-06T09:12:25.430Z,3.00
2023-04-06T09:14:53.065Z,3.25
2023-04-06T09:17:25.564Z,2.60
2023-04-06T09:19:53.440Z,2.60
2023-04-06T09:22:21.752Z,2.80
2023-04-06T09:24:54.459Z,2.70
2023-04-06T09:27:33.087Z,2.80
2023-04-06T09:30:13.980Z,3.13
2023-04-06T09:32:52.173Z,3.00
2023-04-06T09:35:23.593Z,3.00
2023-04-06T09:37:56.585Z,2.90
2023-04-06T09:40:24.360Z,3.25
2023-04-06T09:42:53.992Z,2.70
2023-04-06T09:45:22.246Z,2.88
2023-04-06T09:47:52.833Z,2.80
2023-04-06T09:50:21.327Z,3.10
2023-04-06T09:52:51.888Z,2.88
2023-04-06T09:55:31.758Z,3.05
2023-04-06T09:58:07.827Z,2.88
2023-04-06T10:00:44.790Z,3.10
2023-04-06T10:03:31.522Z,3.00
2023-04-06T10:06:05.946Z,3.20
2023-04-06T10:08:37.014Z,2.70
2023-04-06T10:11:04.569Z,2.70
2023-04-06T10:13:32.156Z,2.92
2023-04-06T10:16:02.718Z,3.40
2023-04-06T10:18:30.993Z,2.92
2023-04-06T10:21:13.089Z,3.03
2023-04-06T10:23:49.229Z,2.60
2023-04-06T10:26:19.230Z,3.00
2023-04-06T10:28:48.089Z,2.78
2023-04-06T10:31:15.864Z,2.97
2023-04-06T10:33:54.503Z,3.03
2023-04-06T10:36:36.011Z,3.05
2023-04-06T10:39:06.202Z,2.75
2023-04-06T10:41:42.303Z,2.67
2023-04-06T10:44:18.219Z,3.35
2023-04-06T10:46:55.988Z,2.63
2023-04-06T10:49:25.286Z,2.60
2023-04-06T10:51:58.234Z,2.40
2023-04-06T10:54:27.381Z,2.38
2023-04-06T10:56:54.981Z,3.10
2023-04-06T10:59:23.215Z,2.92
2023-04-06T11:01:51.032Z,2.70
2023-04-06T11:04:19.924Z,3.17
2023-04-06T11:06:51.646Z,2.85
2023-04-06T11:09:30.616Z,2.75
2023-04-06T11:11:58.295Z,2.47
2023-04-06T11:14:27.820Z,2.55
2023-04-06T11:16:56.216Z,2.60
2023-04-06T11:19:24.017Z,2.35
2023-04-06T11:21:51.553Z,2.65
2023-04-06T11:24:24.127Z,2.65
2023-04-06T11:29:24.901Z,2.20
2023-04-06T11:31:59.146Z,2.45
2023-04-06T11:34:31.891Z,2.72
2023-04-06T11:37:07.244Z,2.65
2023-04-06T11:39:51.941Z,3.10
2023-04-06T11:42:27.086Z,2.45
2023-04-06T11:44:59.652Z,2.45
2023-04-06T11:50:11.431Z,2.95
2023-04-06T11:52:40.718Z,2.90
2023-04-06T11:55:15.394Z,2.78
2023-04-06T11:58:40.851Z,2.30
2023-04-06T12:01:08.682Z,2.50
2023-04-06T12:03:36.358Z,2.28
2023-04-06T12:06:04.374Z,2.70
2023-04-06T12:08:31.864Z,2.70
2023-04-06T12:11:00.660Z,2.60
2023-04-06T12:13:28.698Z,2.47
2023-04-06T12:15:56.267Z,2.20
2023-04-06T12:18:23.839Z,2.17
2023-04-06T12:20:51.711Z,2.58
2023-04-06T12:23:21.132Z,2.45
2023-04-06T12:25:49.182Z,2.50
2023-04-06T12:28:16.863Z,2.42
2023-04-06T12:30:44.550Z,2.47
2023-04-06T12:33:12.097Z,2.45
2023-04-06T12:35:40.060Z,2.75
2023-04-06T12:38:07.824Z,2.45
2023-04-06T12:40:39.695Z,2.40
2023-04-06T12:43:07.254Z,2.70
2023-04-06T12:45:34.945Z,2.42
2023-04-06T12:48:03.025Z,2.78
2023-04-06T12:50:30.869Z,2.70
2023-04-06T12:53:00.670Z,2.97
2023-04-06T12:55:31.248Z,2.50
2023-04-06T12:58:00.072Z,2.13
2023-04-06T13:00:27.962Z,2.40
2023-04-06T13:02:55.715Z,2.47
2023-04-06T13:05:23.259Z,2.05
2023-04-06T13:07:50.780Z,2.53
2023-04-06T13:10:20.988Z,2.47
2023-04-06T13:12:51.143Z,2.38
2023-04-06T13:15:18.715Z,2.60
2023-04-06T13:17:46.887Z,2.40
2023-04-06T13:20:14.569Z,3.17
2023-04-06T13:22:42.024Z,2.63
2023-04-06T13:25:09.710Z,2.67
2023-04-06T13:27:37.310Z,2.70
2023-04-06T13:30:05.916Z,2.10
2023-04-06T13:32:34.346Z,2.00
2023-04-06T13:35:03.588Z,2.50
2023-04-06T13:37:31.343Z,2.25
2023-04-06T13:39:58.826Z,2.60
2023-04-06T13:42:29.330Z,2.15
2023-04-06T13:44:56.911Z,2.03
2023-04-06T13:47:24.467Z,2.00
2023-04-06T13:49:55.242Z,2.00
2023-04-06T13:52:23.049Z,2.20
2023-04-06T13:54:51.388Z,2.70
2023-04-06T13:57:18.842Z,2.30
2023-04-06T13:59:50.985Z,2.00
2023-04-06T14:02:21.552Z,2.40
2023-04-06T14:04:49.081Z,2.35
2023-04-06T14:07:16.908Z,1.88
2023-04-06T14:09:44.636Z,1.90
2023-04-06T14:12:12.965Z,2.38
2023-04-06T14:14:40.775Z,2.10
2023-04-06T14:17:08.263Z,2.13
2023-04-06T14:19:37.269Z,2.17
2023-04-06T14:22:05.451Z,2.30
2023-04-06T14:24:32.931Z,1.98
2023-04-06T14:27:02.266Z,2.17
2023-04-06T14:29:32.848Z,2.22
2023-04-06T14:32:01.253Z,2.22
2023-04-06T14:34:28.931Z,2.22
2023-04-06T14:36:56.758Z,1.98
2023-04-06T14:39:24.489Z,2.20
2023-04-06T14:41:54.789Z,2.17
2023-04-06T14:44:29.017Z,2.08
2023-04-06T14:46:59.233Z,2.10
2023-04-06T14:49:26.703Z,2.08
2023-04-06T14:51:55.596Z,1.85
2023-04-06T14:54:23.212Z,1.83
2023-04-06T14:56:51.075Z,1.70
2023-04-06T14:59:18.633Z,1.70
2023-04-06T15:01:46.488Z,1.85
2023-04-06T15:04:15.363Z,1.27
2023-04-06T15:06:43.086Z,1.98
2023-04-06T15:09:10.836Z,1.70
2023-04-06T15:11:39.818Z,2.08
2023-04-06T15:14:08.079Z,1.67
2023-04-06T15:16:35.911Z,1.50
2023-04-06T15:19:03.594Z,1.30
2023-04-06T15:21:32.281Z,1.73
2023-04-06T15:24:00.252Z,2.00
2023-04-06T15:26:27.962Z,1.95
2023-04-06T15:28:55.721Z,2.03
2023-04-06T15:31:36.892Z,2.10
2023-04-06T15:34:11.424Z,1.65
2023-04-06T15:36:38.970Z,2.72
2023-04-06T15:39:10.103Z,2.67
2023-04-06T15:41:37.815Z,1.77
2023-04-06T15:44:05.822Z,1.92
2023-04-06T15:46:33.325Z,2.00
2023-04-06T15:49:00.916Z,2.13
2023-04-06T15:51:30.344Z,1.60
2023-04-06T15:53:58.886Z,2.45
2023-04-06T15:56:26.678Z,1.90
2023-04-06T15:58:54.344Z,2.35
2023-04-06T16:01:21.903Z,2.05
2023-04-06T16:03:49.834Z,2.00
2023-04-06T16:06:17.689Z,1.50
2023-04-06T16:08:45.336Z,1.60
2023-04-06T16:11:13.279Z,1.92
2023-04-06T16:13:43.219Z,1.73
2023-04-06T16:16:12.719Z,1.90
2023-04-06T16:18:40.338Z,2.45
2023-04-06T16:21:07.913Z,2.08
2023-04-06T16:23:35.906Z,1.50
2023-04-06T16:26:11.485Z,1.67
2023-04-06T16:28:38.945Z,1.60
2023-04-06T16:31:07.031Z,1.77
2023-04-06T16:33:36.762Z,1.67
2023-04-06T16:36:04.405Z,1.50
2023-04-06T16:38:35.870Z,1.65
2023-04-06T16:41:03.515Z,1.63
2023-04-06T16:43:32.413Z,1.40
2023-04-06T16:46:00.023Z,2.25
2023-04-06T16:48:27.986Z,1.40
2023-04-06T16:50:56.229Z,1.85
2023-04-06T16:53:23.697Z,1.83
2023-04-06T16:55:51.266Z,1.73
2023-04-06T16:58:18.951Z,1.50
2023-04-06T17:00:46.577Z,1.95
2023-04-06T17:03:14.242Z,2.13
2023-04-06T17:05:41.875Z,1.85
2023-04-06T17:08:09.488Z,2.00
2023-04-06T17:10:46.960Z,2.00
2023-04-06T17:13:24.450Z,1.70
2023-04-06T17:15:51.983Z,2.00
2023-04-06T17:18:19.468Z,2.33
2023-04-06T17:20:47.052Z,1.90
2023-04-06T17:23:15.976Z,1.70
2023-04-06T17:25:43.476Z,1.70
2023-04-06T17:28:11.507Z,2.42
2023-04-06T17:30:40.620Z,1.80
2023-04-06T17:33:08.118Z,1.80
2023-04-06T17:35:35.751Z,1.80
2023-04-06T17:38:03.296Z,1.80
2023-04-06T17:40:30.896Z,1.73
2023-04-06T17:42:58.503Z,2.30
2023-04-06T17:45:26.126Z,2.00
2023-04-06T17:47:53.883Z,2.22
2023-04-06T17:50:21.504Z,2.35
2023-04-06T17:52:50.186Z,2.15
2023-04-06T17:55:18.156Z,2.25
2023-04-06T17:57:46.783Z,1.90
2023-04-06T18:00:16.879Z,2.30
2023-04-06T18:02:44.616Z,2.00
2023-04-06T18:05:12.436Z,2.28
2023-04-06T18:07:41.162Z,2.10
2023-04-06T18:10:09.335Z,1.83
2023-04-06T18:12:36.918Z,2.05
2023-04-06T18:15:05.076Z,2.00
2023-04-06T18:17:33.077Z,1.83
2023-04-06T18:20:00.758Z,1.80
2023-04-06T18:22:29.756Z,2.08
2023-04-06T18:24:59.631Z,2.42
2023-04-06T18:27:27.629Z,2.20
2023-04-06T18:29:55.300Z,2.35
2023-04-06T18:32:23.070Z,2.10
2023-04-06T18:34:50.882Z,1.85
2023-04-06T18:37:18.473Z,2.08
2023-04-06T18:39:46.099Z,2.05
2023-04-06T18:42:13.605Z,1.98
2023-04-06T18:44:41.218Z,1.90
2023-04-06T18:47:08.734Z,1.60
2023-04-06T18:49:36.257Z,2.05
2023-04-06T18:52:06.571Z,1.80
2023-04-06T18:54:34.096Z,1.73
2023-04-06T18:57:01.952Z,1.80
2023-04-06T18:59:30.748Z,1.70
2023-04-06T19:01:59.528Z,2.00
2023-04-06T19:04:29.604Z,1.70
2023-04-06T19:06:57.192Z,1.75
2023-04-06T19:09:24.787Z,1.92
2023-04-06T19:11:52.289Z,2.08
2023-04-06T19:14:19.916Z,2.00
2023-04-06T19:16:52.478Z,2.13
2023-04-06T19:19:20.766Z,2.00
2023-04-06T19:21:48.562Z,1.88
2023-04-06T19:24:16.502Z,2.03
2023-04-06T19:26:44.136Z,2.10
2023-04-06T19:29:11.771Z,2.17
2023-04-06T19:31:39.511Z,2.30
2023-04-06T19:34:08.290Z,2.08
2023-04-06T19:36:35.950Z,2.13
2023-04-06T19:39:03.640Z,1.83
2023-04-06T19:41:31.276Z,2.00
2023-04-06T19:43:58.742Z,2.20
2023-04-06T19:46:26.373Z,2.05
2023-04-06T19:48:53.976Z,1.92
2023-04-06T19:51:21.388Z,2.00
2023-04-06T19:53:48.962Z,2.03
2023-04-06T19:56:16.498Z,2.20
2023-04-06T19:58:44.038Z,1.80
2023-04-06T20:01:11.772Z,1.90
2023-04-06T20:03:41.160Z,2.10
2023-04-06T20:06:08.813Z,2.15
2023-04-06T20:08:36.546Z,2.10
2023-04-06T20:11:05.146Z,1.88
2023-04-06T20:13:33.045Z,1.80
2023-04-06T20:16:00.852Z,1.90
2023-04-06T20:18:28.352Z,2.00
2023-04-06T20:20:55.931Z,1.90
2023-04-06T20:23:23.760Z,2.10
2023-04-06T20:25:51.271Z,1.98
2023-04-06T20:28:18.928Z,1.70
2023-04-06T20:30:46.533Z,2.17
2023-04-06T20:33:14.035Z,1.98
2023-04-06T20:35:41.628Z,2.00
2023-04-06T20:38:09.074Z,1.90
2023-04-06T20:40:37.291Z,2.03
2023-04-06T20:43:05.710Z,1.95
2023-04-06T20:45:38.686Z,1.92
2023-04-06T20:48:06.422Z,1.85
2023-04-06T20:50:34.036Z,1.75
2023-04-06T20:53:01.496Z,1.88
2023-04-06T20:55:29.070Z,1.95
2023-04-06T20:57:57.857Z,2.00
2023-04-06T21:00:25.381Z,1.83
2023-04-06T21:02:53.123Z,2.20
2023-04-06T21:05:21.139Z,2.35
2023-04-06T21:07:48.628Z,1.90
2023-04-06T21:10:16.632Z,2.08
2023-04-06T21:12:44.078Z,2.00
2023-04-06T21:15:12.048Z,1.70
2023-04-06T21:17:39.624Z,1.88
2023-04-06T21:20:07.894Z,1.90
2023-04-06T21:22:35.365Z,2.17
2023-04-06T21:25:02.872Z,2.00
2023-04-06T21:27:30.698Z,2.38
2023-04-06T21:29:59.506Z,1.88
2023-04-06T21:32:29.815Z,1.85
2023-04-06T21:34:57.293Z,1.67
2023-04-06T21:37:24.788Z,2.08
2023-04-06T21:39:52.412Z,2.60
2023-04-06T21:42:19.832Z,2.10
2023-04-06T21:44:47.253Z,2.47
2023-04-06T21:47:14.798Z,2.60
2023-04-06T21:49:42.475Z,2.85
2023-04-06T21:52:10.384Z,2.97
2023-04-06T21:54:38.825Z,2.55
2023-04-06T21:57:06.321Z,2.33
2023-04-06T21:59:34.025Z,2.38
2023-04-06T22:02:01.532Z,2.78
2023-04-06T22:04:31.111Z,2.05
2023-04-06T22:06:58.677Z,2.13
2023-04-06T22:09:26.434Z,3.00
2023-04-06T22:11:54.136Z,2.97
2023-04-06T22:14:21.759Z,2.35
2023-04-06T22:16:49.450Z,2.17
2023-04-06T22:19:16.925Z,3.08
2023-04-06T22:21:45.502Z,2.17
2023-04-06T22:24:13.078Z,1.80
2023-04-06T22:26:40.699Z,2.10
2023-04-06T22:29:08.313Z,2.30
2023-04-06T22:31:35.950Z,2.08
2023-04-06T22:34:03.477Z,2.35
2023-04-06T22:36:32.034Z,1.85
2023-04-06T22:38:59.522Z,1.77
2023-04-06T22:41:27.586Z,2.45
2023-04-06T22:43:55.077Z,2.00
2023-04-06T22:46:23.456Z,1.95
2023-04-06T22:48:51.102Z,2.10
2023-04-06T22:51:20.010Z,2.45
2023-04-06T22:53:47.496Z,2.42
2023-04-06T22:56:14.918Z,2.20
2023-04-06T22:58:42.622Z,2.33
2023-04-06T23:01:10.234Z,2.30
2023-04-06T23:03:37.845Z,2.15
2023-04-06T23:06:06.049Z,2.03
2023-04-06T23:08:33.582Z,2.13
2023-04-06T23:11:01.230Z,2.45
2023-04-06T23:13:28.704Z,2.00
2023-04-06T23:15:56.247Z,2.25
2023-04-06T23:18:23.776Z,2.50
2023-04-06T23:20:52.936Z,2.20
2023-04-06T23:23:20.698Z,2.08
2023-04-06T23:25:48.148Z,2.10
2023-04-06T23:28:15.817Z,2.15
2023-04-06T23:30:43.554Z,2.30
2023-04-06T23:33:11.079Z,2.47
2023-04-06T23:35:38.587Z,8.77
2023-04-06T23:38:06.088Z,2.95
2023-04-06T23:40:33.642Z,2.60
2023-04-06T23:43:01.136Z,2.63
2023-04-06T23:45:28.773Z,2.30
2023-04-06T23:47:56.342Z,2.40
2023-04-06T23:50:24.132Z,2.53
2023-04-06T23:52:51.718Z,2.17
2023-04-06T23:55:19.218Z,2.33
2023-04-06T23:57:46.745Z,2.50
